createdAt,value
2022-09-27T00:03:00.657Z,9.77
2022-09-27T00:08:15.245Z,9.57
2022-09-27T00:13:23.601Z,7.28
2022-09-27T00:18:29.979Z,7.45
2022-09-27T00:23:35.924Z,9.45
2022-09-27T00:28:42.238Z,7.72
2022-09-27T00:33:45.679Z,10.00
2022-09-27T00:38:52.094Z,8.13
2022-09-27T00:43:58.750Z,7.45
2022-09-27T00:49:12.553Z,7.90
2022-09-27T00:54:20.024Z,7.68
2022-09-27T00:59:32.913Z,9.70
2022-09-27T01:04:42.291Z,8.82
2022-09-27T01:09:48.390Z,10.35
2022-09-27T01:15:13.208Z,8.65
2022-09-27T01:20:48.359Z,7.43
2022-09-27T01:26:06.251Z,8.02
2022-09-27T01:31:17.697Z,8.60
2022-09-27T01:36:28.751Z,9.77
2022-09-27T01:41:40.717Z,10.85
2022-09-27T01:46:50.414Z,12.43
2022-09-27T01:51:57.893Z,9.98
2022-09-27T01:57:02.286Z,9.60
2022-09-27T02:02:13.431Z,9.85
2022-09-27T02:07:22.047Z,9.90
2022-09-27T02:12:29.374Z,9.35
2022-09-27T02:17:44.713Z,10.20
2022-09-27T02:22:51.778Z,8.50
2022-09-27T02:28:01.115Z,9.55
2022-09-27T02:33:06.180Z,8.70
2022-09-27T02:38:11.939Z,7.95
2022-09-27T02:43:21.760Z,6.88
2022-09-27T02:48:39.734Z,8.35
2022-09-27T02:53:56.431Z,7.32
2022-09-27T02:59:09.439Z,7.78
2022-09-27T03:04:23.227Z,8.38
2022-09-27T03:09:32.891Z,8.38
2022-09-27T03:14:38.470Z,7.57
2022-09-27T03:19:46.806Z,9.50
2022-09-27T03:24:50.367Z,7.72
2022-09-27T03:29:53.269Z,7.90
2022-09-27T03:35:02.028Z,7.70
2022-09-27T03:40:04.615Z,6.97
2022-09-27T03:45:10.087Z,8.45
2022-09-27T03:50:18.043Z,8.07
2022-09-27T03:55:22.747Z,8.13
2022-09-27T04:00:27.608Z,8.35
2022-09-27T04:05:36.878Z,7.85
2022-09-27T04:10:44.333Z,12.43
2022-09-27T04:15:52.345Z,8.90
2022-09-27T04:21:02.970Z,8.50
2022-09-27T04:26:09.387Z,9.13
2022-09-27T04:31:13.194Z,8.82
2022-09-27T04:36:30.367Z,7.88
2022-09-27T04:41:35.122Z,7.70
2022-09-27T04:46:41.672Z,9.35
2022-09-27T04:51:50.202Z,7.28
2022-09-27T04:56:56.816Z,8.10
2022-09-27T05:02:05.145Z,8.02
2022-09-27T05:07:12.753Z,7.03
2022-09-27T05:12:15.719Z,7.00
2022-09-27T05:17:21.255Z,6.50
2022-09-27T05:22:30.179Z,7.70
2022-09-27T05:27:36.840Z,8.77
2022-09-27T05:32:44.966Z,10.10
2022-09-27T05:37:58.558Z,8.10
2022-09-27T05:43:03.523Z,8.40
2022-09-27T05:48:09.681Z,10.02
2022-09-27T05:53:18.350Z,6.47
2022-09-27T06:03:52.735Z,6.95
2022-09-27T06:15:53.306Z,8.20
2022-09-27T06:20:57.610Z,8.65
2022-09-27T06:26:10.917Z,9.70
2022-09-27T06:31:17.612Z,9.90
2022-09-27T06:36:21.263Z,8.70
2022-09-27T06:41:30.915Z,8.90
2022-09-27T06:46:38.476Z,7.32
2022-09-27T06:51:52.329Z,9.52
2022-09-27T06:57:02.316Z,10.27
2022-09-27T07:02:12.951Z,9.50
2022-09-27T07:07:18.653Z,13.48
2022-09-27T07:12:29.091Z,9.55
2022-09-27T07:17:36.059Z,11.20
2022-09-27T07:22:43.500Z,10.77
2022-09-27T07:27:52.712Z,12.63
2022-09-27T07:33:01.172Z,11.55
2022-09-27T07:38:08.959Z,11.23
2022-09-27T07:43:14.123Z,11.52
2022-09-27T07:48:21.017Z,9.50
2022-09-27T07:53:26.818Z,11.00
2022-09-27T07:58:36.005Z,10.05
2022-09-27T08:03:40.652Z,10.65
2022-09-27T08:08:47.106Z,9.80
2022-09-27T08:13:53.157Z,7.25
2022-09-27T08:19:02.168Z,7.10
2022-09-27T08:24:04.754Z,7.95
2022-09-27T08:29:08.267Z,8.60
2022-09-27T08:34:10.394Z,6.00
2022-09-27T08:39:15.568Z,6.85
2022-09-27T08:44:23.330Z,7.80
2022-09-27T08:49:32.499Z,7.85
2022-09-27T08:54:38.800Z,7.05
2022-09-27T08:59:46.394Z,6.47
2022-09-27T09:04:51.835Z,7.53
2022-09-27T09:10:01.185Z,4.78
2022-09-27T09:15:19.415Z,5.70
2022-09-27T09:20:34.642Z,6.78
2022-09-27T09:25:43.782Z,5.82
2022-09-27T09:30:59.742Z,3.50
2022-09-27T09:36:06.766Z,3.58
2022-09-27T09:41:17.125Z,2.58
2022-09-27T09:46:25.573Z,3.03
2022-09-27T09:51:36.346Z,3.78
2022-09-27T09:56:45.116Z,3.83
2022-09-27T10:01:49.219Z,4.07
2022-09-27T10:06:52.725Z,3.50
2022-09-27T10:11:55.068Z,3.22
2022-09-27T10:17:01.024Z,4.03
2022-09-27T10:22:12.484Z,3.22
2022-09-27T10:27:14.554Z,3.75
2022-09-27T10:32:27.321Z,2.50
2022-09-27T10:37:29.399Z,2.55
2022-09-27T10:42:36.358Z,3.72
2022-09-27T10:47:40.150Z,2.45
2022-09-27T10:52:42.972Z,2.85
2022-09-27T10:57:50.517Z,1.75
2022-09-27T11:02:56.293Z,2.15
2022-09-27T11:07:59.736Z,2.75
2022-09-27T11:13:14.613Z,2.40
2022-09-27T11:18:23.089Z,2.65
2022-09-27T11:23:31.310Z,5.78
2022-09-27T11:28:37.685Z,3.97
2022-09-27T11:33:52.493Z,3.50
2022-09-27T11:39:02.866Z,2.42
2022-09-27T11:44:09.909Z,3.10
2022-09-27T11:49:30.897Z,2.67
2022-09-27T11:54:47.252Z,3.72
2022-09-27T12:00:00.101Z,2.17
2022-09-27T12:05:11.638Z,1.75
2022-09-27T12:10:21.613Z,2.58
2022-09-27T12:15:28.729Z,3.13
2022-09-27T12:32:07.720Z,2.15
2022-09-27T12:37:37.731Z,1.92
2022-09-27T12:55:12.569Z,2.58
2022-09-27T13:00:52.435Z,4.85
2022-09-27T13:06:29.341Z,2.22
2022-09-27T13:12:19.859Z,3.92
2022-09-27T13:18:07.446Z,2.42
2022-09-27T13:31:40.861Z,1.80
2022-09-27T13:36:44.155Z,2.88
2022-09-27T13:49:24.412Z,2.95
2022-09-27T14:01:37.454Z,1.95
2022-09-27T14:07:51.938Z,2.05
2022-09-27T14:20:18.608Z,2.53
2022-09-27T14:31:44.928Z,1.13
2022-09-27T14:43:06.544Z,1.77
2022-09-27T14:49:01.247Z,0.77
2022-09-27T14:54:55.501Z,1.60
2022-09-27T15:11:16.125Z,1.08
2022-09-27T15:16:21.663Z,2.58
2022-09-27T15:21:31.207Z,1.80
2022-09-27T15:26:41.154Z,0.82
2022-09-27T15:31:43.512Z,0.70
2022-09-27T15:36:54.709Z,1.00
2022-09-27T15:42:10.591Z,2.63
2022-09-27T15:47:41.234Z,1.60
2022-09-27T15:52:44.935Z,1.45
2022-09-27T15:57:52.355Z,1.23
2022-09-27T16:02:55.080Z,2.38
2022-09-27T16:07:59.367Z,1.35
2022-09-27T16:13:03.031Z,1.55
2022-09-27T16:18:05.545Z,2.78
2022-09-27T16:23:07.938Z,0.90
2022-09-27T16:28:13.197Z,1.95
2022-09-27T16:33:15.517Z,1.55
2022-09-27T16:38:18.168Z,1.75
2022-09-27T16:43:21.870Z,1.15
2022-09-27T16:48:24.154Z,0.90
2022-09-27T16:53:26.367Z,1.30
2022-09-27T16:58:32.140Z,0.75
2022-09-27T17:03:34.320Z,1.20
2022-09-27T17:08:36.491Z,0.85
2022-09-27T17:13:40.129Z,1.27
2022-09-27T17:18:43.326Z,0.93
2022-09-27T17:23:45.586Z,0.75
2022-09-27T17:28:51.093Z,0.80
2022-09-27T17:33:57.791Z,0.50
2022-09-27T17:39:00.258Z,0.60
2022-09-27T17:44:03.909Z,0.93
2022-09-27T17:49:22.846Z,1.65
2022-09-27T17:54:28.030Z,0.43
2022-09-27T17:59:31.608Z,0.35
2022-09-27T18:04:33.852Z,0.43
2022-09-27T18:09:37.360Z,1.27
2022-09-27T18:14:41.002Z,0.93
2022-09-27T18:19:43.713Z,2.45
2022-09-27T18:24:45.988Z,1.02
2022-09-27T18:29:49.989Z,1.52
2022-09-27T18:34:52.286Z,0.98
2022-09-27T18:39:56.119Z,0.52
2022-09-27T18:44:59.917Z,2.97
2022-09-27T18:50:02.246Z,1.73
2022-09-27T18:55:06.986Z,1.30
2022-09-27T19:00:12.502Z,2.13
2022-09-27T19:05:19.414Z,2.40
2022-09-27T19:10:22.343Z,1.50
2022-09-27T19:15:26.945Z,2.50
2022-09-27T19:20:30.261Z,1.77
2022-09-27T19:25:32.975Z,0.90
2022-09-27T19:30:41.821Z,1.00
2022-09-27T19:35:44.121Z,3.15
2022-09-27T19:40:54.862Z,1.65
2022-09-27T19:46:03.721Z,0.93
2022-09-27T19:51:06.878Z,1.05
2022-09-27T19:56:10.887Z,1.75
2022-09-27T20:01:16.559Z,1.17
2022-09-27T20:06:20.839Z,1.60
2022-09-27T20:11:26.313Z,1.40
2022-09-27T20:16:30.430Z,1.67
2022-09-27T20:21:34.187Z,1.45
2022-09-27T20:26:38.055Z,3.95
2022-09-27T20:31:56.980Z,2.45
2022-09-27T20:37:04.533Z,1.90
2022-09-27T20:42:07.050Z,1.20
2022-09-27T20:47:10.562Z,2.20
2022-09-27T20:52:12.728Z,1.65
2022-09-27T20:57:14.893Z,1.77
2022-09-27T21:02:18.687Z,1.67
2022-09-27T21:07:21.036Z,0.77
2022-09-27T21:12:23.151Z,2.15
2022-09-27T21:17:26.670Z,2.70
2022-09-27T21:22:29.015Z,1.02
2022-09-27T21:27:31.306Z,2.30
2022-09-27T21:32:34.910Z,1.70
2022-09-27T21:37:37.062Z,1.92
2022-09-27T21:42:39.248Z,2.85
2022-09-27T21:47:42.740Z,2.97
2022-09-27T21:52:44.876Z,2.20
2022-09-27T21:57:47.024Z,1.85
2022-09-27T22:02:50.528Z,2.17
2022-09-27T22:07:52.692Z,1.65
2022-09-27T22:12:54.981Z,1.08
2022-09-27T22:17:58.496Z,3.47
2022-09-27T22:23:00.710Z,0.80
2022-09-27T22:28:03.703Z,1.00
2022-09-27T22:33:07.257Z,1.42
2022-09-27T22:38:09.420Z,2.60
2022-09-27T22:43:12.322Z,1.25
2022-09-27T22:48:15.820Z,0.75
2022-09-27T22:53:17.990Z,0.90
2022-09-27T22:58:20.321Z,2.90
2022-09-27T23:03:24.178Z,1.83
2022-09-27T23:08:26.398Z,1.77
2022-09-27T23:13:31.899Z,1.02
2022-09-27T23:18:35.919Z,1.00
2022-09-27T23:23:41.094Z,0.57
2022-09-27T23:28:43.936Z,1.23
2022-09-27T23:33:49.056Z,0.70
2022-09-27T23:38:51.450Z,1.55
2022-09-27T23:43:54.341Z,0.93
2022-09-27T23:48:59.118Z,1.98
2022-09-27T23:54:04.417Z,1.40
2022-09-27T23:59:06.685Z,1.75
